createdAt,value
2023-11-21T00:02:28.544Z,5.89
2023-11-21T00:05:31.391Z,5.88
2023-11-21T00:08:34.090Z,5.89
2023-11-21T00:11:36.784Z,6.00
2023-11-21T00:14:42.170Z,5.95
2023-11-21T00:17:44.955Z,6.04
2023-11-21T00:20:47.678Z,5.83
2023-11-21T00:23:50.320Z,5.80
2023-11-21T00:26:54.257Z,5.78
2023-11-21T00:29:57.014Z,5.73
2023-11-21T00:32:59.895Z,5.73
2023-11-21T00:36:02.561Z,5.69
2023-11-21T00:39:07.152Z,5.68
2023-11-21T00:42:11.734Z,5.69
2023-11-21T00:45:14.476Z,5.71
2023-11-21T00:48:17.266Z,5.72
2023-11-21T00:51:19.925Z,5.80
2023-11-21T00:54:22.601Z,5.81
2023-11-21T00:57:25.363Z,5.77
2023-11-21T01:00:28.135Z,5.71
2023-11-21T01:03:32.442Z,5.74
2023-11-21T01:06:35.330Z,5.71
2023-11-21T01:09:38.085Z,5.73
2023-11-21T01:12:41.113Z,5.79
2023-11-21T01:15:43.865Z,5.85
2023-11-21T01:18:46.565Z,5.88
2023-11-21T01:21:49.234Z,5.96
2023-11-21T01:24:52.022Z,6.03
2023-11-21T01:27:54.784Z,6.03
2023-11-21T01:30:57.851Z,6.07
2023-11-21T01:34:00.586Z,6.15
2023-11-21T01:37:06.413Z,6.15
2023-11-21T01:40:12.548Z,6.21
2023-11-21T01:43:15.371Z,6.30
2023-11-21T01:46:18.084Z,6.31
2023-11-21T01:49:21.739Z,6.37
2023-11-21T01:52:25.884Z,6.35
2023-11-21T01:55:31.545Z,6.41
2023-11-21T01:58:34.633Z,6.34
2023-11-21T02:01:37.329Z,6.35
2023-11-21T02:04:40.438Z,6.25
2023-11-21T02:07:46.498Z,6.18
2023-11-21T02:10:49.449Z,6.22
2023-11-21T02:13:55.333Z,6.10
2023-11-21T02:16:58.850Z,6.09
2023-11-21T02:20:01.549Z,6.07
2023-11-21T02:23:04.362Z,5.99
2023-11-21T02:26:07.607Z,5.98
2023-11-21T02:29:13.186Z,5.95
2023-11-21T02:32:18.248Z,5.93
2023-11-21T02:35:22.391Z,5.97
2023-11-21T02:38:25.021Z,6.00
2023-11-21T02:41:27.655Z,6.11
2023-11-21T02:44:30.470Z,6.16
2023-11-21T02:47:33.335Z,6.19
2023-11-21T02:50:36.583Z,6.12
2023-11-21T02:53:39.970Z,6.14
2023-11-21T02:56:42.811Z,6.23
2023-11-21T02:59:46.124Z,6.20
2023-11-21T03:02:49.180Z,6.19
2023-11-21T03:05:52.067Z,6.35
2023-11-21T03:08:54.794Z,6.39
2023-11-21T03:11:57.547Z,6.43
2023-11-21T03:15:00.803Z,6.36
2023-11-21T03:18:04.153Z,6.40
2023-11-21T03:21:09.996Z,6.49
2023-11-21T03:24:12.850Z,6.51
2023-11-21T03:27:15.481Z,6.56
2023-11-21T03:30:18.274Z,6.62
2023-11-21T03:33:21.413Z,6.67
2023-11-21T03:36:26.435Z,6.70
2023-11-21T03:39:30.757Z,6.73
2023-11-21T03:42:33.510Z,6.78
2023-11-21T03:45:36.291Z,6.84
2023-11-21T03:48:39.334Z,6.79
2023-11-21T03:51:42.017Z,6.80
2023-11-21T03:54:44.812Z,6.78
2023-11-21T03:57:47.577Z,6.77
2023-11-21T04:00:50.572Z,6.77
2023-11-21T04:03:53.650Z,6.74
2023-11-21T04:06:56.399Z,6.77
2023-11-21T04:09:59.049Z,6.79
2023-11-21T04:13:01.685Z,6.85
2023-11-21T04:16:04.546Z,6.82
2023-11-21T04:19:07.235Z,6.89
2023-11-21T04:22:09.881Z,6.98
2023-11-21T04:25:14.532Z,6.98
2023-11-21T04:28:17.241Z,7.01
2023-11-21T04:31:20.077Z,7.10
2023-11-21T04:34:22.943Z,7.11
2023-11-21T04:37:25.796Z,7.16
2023-11-21T04:40:28.588Z,7.27
2023-11-21T04:43:31.410Z,7.41
2023-11-21T04:46:34.288Z,7.44
2023-11-21T04:49:37.335Z,7.46
2023-11-21T04:52:40.045Z,7.56
2023-11-21T04:55:43.006Z,7.56
2023-11-21T04:58:45.724Z,7.60
2023-11-21T05:01:51.232Z,7.59
2023-11-21T05:04:54.616Z,7.63
2023-11-21T05:07:57.468Z,7.63
2023-11-21T05:11:00.244Z,7.65
2023-11-21T05:14:03.079Z,7.65
2023-11-21T05:17:05.881Z,7.67
2023-11-21T05:20:11.079Z,7.65
2023-11-21T05:23:13.968Z,7.66
2023-11-21T05:26:16.640Z,7.76
2023-11-21T05:29:19.450Z,7.74
2023-11-21T05:32:22.185Z,7.75
2023-11-21T05:35:24.909Z,7.73
2023-11-21T05:38:27.609Z,7.78
2023-11-21T05:41:30.289Z,7.78
2023-11-21T05:44:33.138Z,7.79
2023-11-21T05:47:37.187Z,7.76
2023-11-21T05:50:39.983Z,7.75
2023-11-21T05:53:42.733Z,7.77
2023-11-21T05:56:45.635Z,7.80
2023-11-21T05:59:48.347Z,7.76
2023-11-21T06:02:58.630Z,7.81
2023-11-21T06:06:01.437Z,7.84
2023-11-21T06:09:04.542Z,7.90
2023-11-21T06:12:07.662Z,7.86
2023-11-21T06:15:14.975Z,7.84
2023-11-21T06:18:20.580Z,7.82
2023-11-21T06:21:23.455Z,7.83
2023-11-21T06:24:26.144Z,7.97
2023-11-21T06:27:28.840Z,7.89
2023-11-21T06:30:31.527Z,7.86
2023-11-21T06:33:34.292Z,7.83
2023-11-21T06:36:37.468Z,7.85
2023-11-21T06:39:40.076Z,7.89
2023-11-21T06:42:42.890Z,7.92
2023-11-21T06:45:45.679Z,7.93
2023-11-21T06:48:49.902Z,7.91
2023-11-21T06:51:52.939Z,7.93
2023-11-21T06:54:56.001Z,7.98
2023-11-21T06:57:59.356Z,8.09
2023-11-21T07:01:02.094Z,8.11
2023-11-21T07:04:08.506Z,8.16
2023-11-21T07:07:11.269Z,8.09
2023-11-21T07:10:14.126Z,8.10
2023-11-21T07:13:16.850Z,8.05
2023-11-21T07:16:23.835Z,8.07
2023-11-21T07:19:30.705Z,8.08
2023-11-21T07:22:33.595Z,8.06
2023-11-21T07:25:39.224Z,8.09
2023-11-21T07:28:42.038Z,8.10
2023-11-21T07:31:44.927Z,8.10
2023-11-21T07:34:47.816Z,8.16
2023-11-21T07:37:51.069Z,8.20
2023-11-21T07:40:53.999Z,8.16
2023-11-21T07:43:57.311Z,8.17
2023-11-21T07:47:00.178Z,8.18
2023-11-21T07:50:05.201Z,8.25
2023-11-21T07:53:08.206Z,8.30
2023-11-21T07:56:11.276Z,8.23
2023-11-21T07:59:15.610Z,8.20
2023-11-21T08:02:19.323Z,8.14
2023-11-21T08:05:28.138Z,8.12
2023-11-21T08:08:35.371Z,8.14
2023-11-21T08:11:40.196Z,8.21
2023-11-21T08:14:43.022Z,8.29
2023-11-21T08:17:45.772Z,8.26
2023-11-21T08:20:49.007Z,8.24
2023-11-21T08:23:55.414Z,8.21
2023-11-21T08:26:59.693Z,8.22
2023-11-21T08:30:04.362Z,8.31
2023-11-21T08:33:07.123Z,8.26
2023-11-21T08:36:10.780Z,8.27
2023-11-21T08:39:14.655Z,8.34
2023-11-21T08:42:17.411Z,8.36
2023-11-21T08:45:21.047Z,8.40
2023-11-21T08:48:23.870Z,8.39
2023-11-21T08:51:26.836Z,8.51
2023-11-21T08:54:29.739Z,8.52
2023-11-21T08:57:32.525Z,8.48
2023-11-21T09:00:35.506Z,8.48
2023-11-21T09:03:38.770Z,8.48
2023-11-21T09:06:41.552Z,8.58
2023-11-21T09:09:44.293Z,8.49
2023-11-21T09:12:47.080Z,8.46
2023-11-21T09:15:55.989Z,8.54
2023-11-21T09:19:01.795Z,8.39
2023-11-21T09:22:09.231Z,8.39
2023-11-21T09:25:12.153Z,8.40
2023-11-21T09:28:14.950Z,8.46
2023-11-21T09:31:18.149Z,8.56
2023-11-21T09:34:21.656Z,8.53
2023-11-21T09:37:24.453Z,8.49
2023-11-21T09:40:28.045Z,8.41
2023-11-21T09:43:33.431Z,8.45
2023-11-21T09:46:40.776Z,8.42
2023-11-21T09:49:50.682Z,8.51
2023-11-21T09:53:31.225Z,8.51
2023-11-21T09:56:34.126Z,8.44
2023-11-21T09:59:39.436Z,8.51
2023-11-21T10:02:42.335Z,8.48
2023-11-21T10:05:47.501Z,8.51
2023-11-21T10:08:55.864Z,8.46
2023-11-21T10:12:01.719Z,8.56
2023-11-21T10:15:08.883Z,8.61
2023-11-21T10:18:13.116Z,8.65
2023-11-21T10:21:18.926Z,8.65
2023-11-21T10:24:22.252Z,8.62
2023-11-21T10:27:28.884Z,8.54
2023-11-21T10:30:39.154Z,8.66
2023-11-21T10:33:42.021Z,8.55
2023-11-21T10:36:48.038Z,8.52
2023-11-21T10:39:51.377Z,8.52
2023-11-21T10:42:54.741Z,8.61
2023-11-21T10:46:02.469Z,8.57
2023-11-21T10:49:05.617Z,8.61
2023-11-21T10:52:08.429Z,8.49
2023-11-21T10:55:22.729Z,8.51
2023-11-21T10:58:25.930Z,8.54
2023-11-21T11:01:31.542Z,8.54
2023-11-21T11:04:39.605Z,8.50
2023-11-21T11:07:44.856Z,8.51
2023-11-21T11:10:53.412Z,8.50
2023-11-21T11:13:58.082Z,8.50
2023-11-21T11:17:03.101Z,8.50
2023-11-21T11:20:10.948Z,8.44
2023-11-21T11:23:34.799Z,8.43
2023-11-21T11:27:18.257Z,8.51
2023-11-21T11:30:23.789Z,8.49
2023-11-21T11:33:38.387Z,8.29
2023-11-21T11:37:04.086Z,8.38
2023-11-21T11:40:08.135Z,8.48
2023-11-21T11:43:11.561Z,8.48
2023-11-21T11:46:17.378Z,8.47
2023-11-21T11:49:29.172Z,8.22
2023-11-21T11:52:46.320Z,8.20
2023-11-21T11:56:19.241Z,8.19
2023-11-21T11:59:22.064Z,8.29
2023-11-21T12:02:25.552Z,8.26
2023-11-21T12:05:36.963Z,8.23
2023-11-21T12:08:39.629Z,8.15
2023-11-21T12:11:42.735Z,8.18
2023-11-21T12:14:46.721Z,8.25
2023-11-21T12:17:50.683Z,8.17
2023-11-21T12:20:53.546Z,8.13
2023-11-21T12:23:56.304Z,8.14
2023-11-21T12:26:59.142Z,8.19
2023-11-21T12:30:13.733Z,8.27
2023-11-21T12:33:27.104Z,8.28
2023-11-21T12:36:37.374Z,8.30
2023-11-21T12:39:40.184Z,8.32
2023-11-21T12:42:44.211Z,8.33
2023-11-21T12:45:47.063Z,8.38
2023-11-21T12:48:50.696Z,8.42
2023-11-21T12:51:55.206Z,8.49
2023-11-21T12:54:57.957Z,8.42
2023-11-21T12:58:14.403Z,8.46
2023-11-21T13:01:20.114Z,8.44
2023-11-21T13:04:32.213Z,8.39
2023-11-21T13:07:48.259Z,8.42
2023-11-21T13:10:56.653Z,8.42
2023-11-21T13:14:43.384Z,8.50
2023-11-21T13:21:33.363Z,8.44
2023-11-21T13:24:38.370Z,8.50
2023-11-21T13:27:41.807Z,8.41
2023-11-21T13:30:45.917Z,8.50
2023-11-21T13:33:57.774Z,8.44
2023-11-21T13:37:02.276Z,8.41
2023-11-21T13:40:15.558Z,8.39
2023-11-21T13:43:22.991Z,8.54
2023-11-21T13:46:26.320Z,8.46
2023-11-21T13:49:33.114Z,8.50
2023-11-21T13:52:37.315Z,8.51
2023-11-21T13:55:40.967Z,8.40
2023-11-21T13:59:06.811Z,8.45
2023-11-21T14:02:29.360Z,8.48
2023-11-21T14:05:32.851Z,8.47
2023-11-21T14:08:36.021Z,8.38
2023-11-21T14:11:43.590Z,8.30
2023-11-21T14:14:50.945Z,8.30
2023-11-21T14:17:53.653Z,8.28
2023-11-21T14:20:56.441Z,8.37
2023-11-21T14:23:59.336Z,8.30
2023-11-21T14:27:02.034Z,8.25
2023-11-21T14:30:06.539Z,8.21
2023-11-21T14:33:12.742Z,8.20
2023-11-21T14:36:18.434Z,8.19
2023-11-21T14:39:30.483Z,8.17
2023-11-21T14:42:34.976Z,8.18
2023-11-21T14:45:38.042Z,8.10
2023-11-21T14:48:43.910Z,8.14
2023-11-21T14:52:03.668Z,8.13
2023-11-21T14:55:26.330Z,8.14
2023-11-21T14:58:29.055Z,8.09
2023-11-21T15:01:52.175Z,8.07
2023-11-21T15:05:03.587Z,8.04
2023-11-21T15:08:23.067Z,8.04
2023-11-21T15:11:31.558Z,7.98
2023-11-21T15:14:37.152Z,8.01
2023-11-21T15:17:41.083Z,7.97
2023-11-21T15:20:44.721Z,7.95
2023-11-21T15:23:47.441Z,8.00
2023-11-21T15:26:50.950Z,7.95
2023-11-21T15:29:54.925Z,7.98
2023-11-21T15:32:57.672Z,8.03
2023-11-21T15:36:00.382Z,8.00
2023-11-21T15:39:03.217Z,8.05
2023-11-21T15:42:09.167Z,7.98
2023-11-21T15:45:12.490Z,7.93
2023-11-21T15:48:17.624Z,7.93
2023-11-21T15:51:20.395Z,7.95
2023-11-21T15:54:25.988Z,7.98
2023-11-21T15:57:28.796Z,8.01
2023-11-21T16:00:31.690Z,8.01
2023-11-21T16:03:34.951Z,7.98
2023-11-21T16:06:40.591Z,8.05
2023-11-21T16:09:44.405Z,8.00
2023-11-21T16:12:47.729Z,8.04
2023-11-21T16:15:55.367Z,8.04
2023-11-21T16:18:58.485Z,7.98
2023-11-21T16:22:01.455Z,7.99
2023-11-21T16:25:12.012Z,7.95
2023-11-21T16:28:15.219Z,7.95
2023-11-21T16:31:26.814Z,7.96
2023-11-21T16:34:29.672Z,7.95
2023-11-21T16:37:35.192Z,7.90
2023-11-21T16:40:38.321Z,7.99
2023-11-21T16:43:41.012Z,7.94
2023-11-21T16:47:07.681Z,7.87
2023-11-21T16:50:10.568Z,7.88
2023-11-21T16:53:13.571Z,7.86
2023-11-21T16:56:16.330Z,7.79
2023-11-21T16:59:19.794Z,7.80
2023-11-21T17:02:22.743Z,7.81
2023-11-21T17:05:26.592Z,7.82
2023-11-21T17:08:30.807Z,7.80
2023-11-21T17:11:33.629Z,7.82
2023-11-21T17:14:36.332Z,7.84
2023-11-21T17:17:40.425Z,7.80
2023-11-21T17:20:44.665Z,7.81
2023-11-21T17:23:47.494Z,7.84
2023-11-21T17:26:50.254Z,7.83
2023-11-21T17:29:55.031Z,7.82
2023-11-21T17:32:58.188Z,7.85
2023-11-21T17:36:00.929Z,7.83
2023-11-21T17:39:09.337Z,7.88
2023-11-21T17:42:12.028Z,7.87
2023-11-21T17:45:15.003Z,7.91
2023-11-21T17:48:18.111Z,7.90
2023-11-21T17:51:21.233Z,7.92
2023-11-21T17:54:24.556Z,7.96
2023-11-21T17:57:27.271Z,7.99
2023-11-21T18:00:30.140Z,7.97
2023-11-21T18:03:32.888Z,8.08
2023-11-21T18:06:35.682Z,8.10
2023-11-21T18:09:40.656Z,8.05
2023-11-21T18:12:44.087Z,8.03
2023-11-21T18:15:46.995Z,8.10
2023-11-21T18:18:51.494Z,8.04
2023-11-21T18:21:54.218Z,8.08
2023-11-21T18:24:58.297Z,8.08
2023-11-21T18:28:01.216Z,8.04
2023-11-21T18:31:08.309Z,8.02
2023-11-21T18:34:12.028Z,8.02
2023-11-21T18:37:14.836Z,7.98
2023-11-21T18:40:17.686Z,7.97
2023-11-21T18:43:20.372Z,7.97
2023-11-21T18:46:23.388Z,8.01
2023-11-21T18:49:27.049Z,7.97
2023-11-21T18:52:30.289Z,7.95
2023-11-21T18:55:33.053Z,7.96
2023-11-21T18:58:37.526Z,8.01
2023-11-21T19:01:41.341Z,8.04
2023-11-21T19:04:44.873Z,8.07
2023-11-21T19:07:47.836Z,8.05
2023-11-21T19:10:51.982Z,7.93
2023-11-21T19:13:55.342Z,7.85
2023-11-21T19:16:58.337Z,7.82
2023-11-21T19:20:02.007Z,7.84
2023-11-21T19:23:04.768Z,7.82
2023-11-21T19:26:07.872Z,7.81
2023-11-21T19:29:10.733Z,7.71
2023-11-21T19:32:14.005Z,7.66
2023-11-21T19:35:17.835Z,7.72
2023-11-21T19:38:21.015Z,7.76
2023-11-21T19:41:24.703Z,7.80
2023-11-21T19:44:29.226Z,7.75
2023-11-21T19:47:34.921Z,7.75
2023-11-21T19:50:38.294Z,7.82
2023-11-21T19:53:41.064Z,7.82
2023-11-21T19:56:44.807Z,7.79
2023-11-21T19:59:49.261Z,7.78
2023-11-21T20:02:53.447Z,7.73
2023-11-21T20:05:56.213Z,7.71
2023-11-21T20:09:00.978Z,7.72
2023-11-21T20:12:04.089Z,7.74
2023-11-21T20:15:07.667Z,7.70
2023-11-21T20:18:14.017Z,7.71
2023-11-21T20:21:21.408Z,7.76
2023-11-21T20:24:24.742Z,7.74
2023-11-21T20:27:27.830Z,7.81
2023-11-21T20:30:33.320Z,7.85
2023-11-21T20:33:36.177Z,7.86
2023-11-21T20:36:39.080Z,7.88
2023-11-21T20:39:41.923Z,7.91
2023-11-21T20:42:48.104Z,7.91
2023-11-21T20:45:50.882Z,7.92
2023-11-21T20:48:55.462Z,7.95
2023-11-21T20:51:58.762Z,7.99
2023-11-21T20:55:01.856Z,8.00
2023-11-21T20:58:04.925Z,7.94
2023-11-21T21:01:08.162Z,7.94
2023-11-21T21:04:11.735Z,7.92
2023-11-21T21:07:14.978Z,8.01
2023-11-21T21:10:17.672Z,7.92
2023-11-21T21:13:20.623Z,7.98
2023-11-21T21:16:26.942Z,7.91
2023-11-21T21:19:31.304Z,7.92
2023-11-21T21:22:34.469Z,7.96
2023-11-21T21:25:37.114Z,7.92
2023-11-21T21:28:39.817Z,7.89
2023-11-21T21:31:42.878Z,7.91
2023-11-21T21:34:45.656Z,7.98
2023-11-21T21:37:48.350Z,7.98
2023-11-21T21:40:53.243Z,7.94
2023-11-21T21:43:56.864Z,7.91
2023-11-21T21:46:59.581Z,7.90
2023-11-21T21:50:02.325Z,7.93
2023-11-21T21:53:06.792Z,7.91
2023-11-21T21:56:09.490Z,7.83
2023-11-21T21:59:13.370Z,7.91
2023-11-21T22:02:16.145Z,7.93
2023-11-21T22:05:19.072Z,7.87
2023-11-21T22:08:21.875Z,7.88
2023-11-21T22:11:24.724Z,7.79
2023-11-21T22:14:27.455Z,7.80
2023-11-21T22:17:30.313Z,7.76
2023-11-21T22:20:33.228Z,7.74
2023-11-21T22:23:37.683Z,7.72
2023-11-21T22:26:40.652Z,7.74
2023-11-21T22:29:43.560Z,7.70
2023-11-21T22:32:46.676Z,7.70
2023-11-21T22:35:49.899Z,7.71
2023-11-21T22:38:52.590Z,7.73
2023-11-21T22:41:56.178Z,7.71
2023-11-21T22:44:58.777Z,7.74
2023-11-21T22:48:01.548Z,7.69
2023-11-21T22:51:04.868Z,7.72
2023-11-21T22:54:08.359Z,7.68
2023-11-21T22:57:11.211Z,7.70
2023-11-21T23:00:15.808Z,7.77
2023-11-21T23:03:18.815Z,7.65
2023-11-21T23:06:22.462Z,7.60
2023-11-21T23:09:25.333Z,7.60
2023-11-21T23:12:28.225Z,7.54
2023-11-21T23:15:30.932Z,7.57
2023-11-21T23:18:33.924Z,7.55
2023-11-21T23:21:36.575Z,7.54
2023-11-21T23:24:39.234Z,7.64
2023-11-21T23:27:41.919Z,7.55
2023-11-21T23:30:45.079Z,7.53
2023-11-21T23:33:47.822Z,7.53
2023-11-21T23:36:50.557Z,7.54
2023-11-21T23:39:53.260Z,7.54
2023-11-21T23:42:55.864Z,7.54
2023-11-21T23:45:58.521Z,7.49
2023-11-21T23:49:02.792Z,7.52
2023-11-21T23:52:05.944Z,7.49
2023-11-21T23:55:09.366Z,7.46
2023-11-21T23:58:12.587Z,7.50
